Time;durP1;ratioP1;P1;durP2;ratioP2;P2;SDS_P1;SDS_P2;PMS_P1;PMS_P2;Temp;Humidity;BMP_temperature;BMP_pressure;BME280_temperature;BME280_humidity;BME280_pressure;Samples;Min_cycle;Max_cycle;Signal;HPM_P1;HPM_P2
2022/07/17 00:01:58;;;;;;;;;;;24.50;86.70;;;;;;5094429;28;19937;-62
2022/07/17 00:04:23;;;;;;;;;;;24.50;86.80;;;;;;5093987;28;19915;-62
2022/07/17 00:06:49;;;;;;;;;;;24.50;86.80;;;;;;5094203;28;19954;-62
2022/07/17 00:09:14;;;;;;;;;;;24.50;86.90;;;;;;5076234;28;19948;-62
2022/07/17 00:11:40;;;;;;;;;;;24.40;86.90;;;;;;5094722;28;20274;-62
2022/07/17 00:14:05;;;;;;;;;;;24.50;87.00;;;;;;5094386;28;20278;-62
2022/07/17 00:16:31;;;;;;;;;;;24.50;87.10;;;;;;5093984;28;19908;-62
2022/07/17 00:18:56;;;;;;;;;;;24.50;87.10;;;;;;5076321;28;19908;-62
2022/07/17 00:21:22;;;;;;;;;;;24.50;87.10;;;;;;5094251;28;19908;-62
2022/07/17 00:23:47;;;;;;;;;;;24.50;87.20;;;;;;5094196;28;19999;-62
2022/07/17 00:26:13;;;;;;;;;;;24.50;87.20;;;;;;5094204;28;19908;-62
2022/07/17 00:28:38;;;;;;;;;;;24.50;87.30;;;;;;5094328;28;19909;-62
2022/07/17 00:31:04;;;;;;;;;;;24.50;87.30;;;;;;5097450;28;19919;-62
2022/07/17 00:33:29;;;;;;;;;;;24.50;87.30;;;;;;5098385;28;19972;-62
2022/07/17 00:35:55;;;;;;;;;;;24.50;87.40;;;;;;5098053;28;19908;-62
2022/07/17 00:38:20;;;;;;;;;;;24.40;87.30;;;;;;5098565;28;19920;-62
2022/07/17 00:40:45;;;;;;;;;;;24.50;87.40;;;;;;5097850;28;19912;-62
2022/07/17 00:43:11;;;;;;;;;;;24.50;87.40;;;;;;5097789;28;19915;-62
2022/07/17 00:45:36;;;;;;;;;;;24.50;87.90;;;;;;5098058;28;19908;-62
2022/07/17 00:48:03;;;;;;;;;;;24.50;87.40;;;;;;5097669;28;19953;-62
2022/07/17 00:50:30;;;;;;;;;;;24.50;87.50;;;;;;5097805;28;19972;-62
2022/07/17 00:52:56;;;;;;;;;;;24.50;87.50;;;;;;5097785;28;19912;-62
2022/07/17 00:55:22;;;;;;;;;;;24.50;87.50;;;;;;5097584;28;19908;-62
2022/07/17 00:57:48;;;;;;;;;;;24.40;87.50;;;;;;5097425;28;19950;-62
2022/07/17 01:00:17;;;;;;;;;;;24.50;87.60;;;;;;5097655;28;20048;-62
2022/07/17 01:02:47;;;;;;;;;;;24.50;87.70;;;;;;5097546;28;19908;-62
2022/07/17 01:05:13;;;;;;;;;;;24.50;87.70;;;;;;5097758;28;19912;-62
2022/07/17 01:07:38;;;;;;;;;;;24.50;87.70;;;;;;5097263;28;19915;-62
2022/07/17 01:10:04;;;;;;;;;;;24.50;87.70;;;;;;5097217;28;20252;-62
2022/07/17 01:12:29;;;;;;;;;;;24.40;87.70;;;;;;5097660;28;19920;-62
2022/07/17 01:14:56;;;;;;;;;;;24.40;87.70;;;;;;5097544;28;19954;-62
2022/07/17 01:17:21;;;;;;;;;;;24.40;87.80;;;;;;5097450;28;19953;-62
2022/07/17 01:19:47;;;;;;;;;;;24.40;87.80;;;;;;5097152;28;19908;-62
2022/07/17 01:22:12;;;;;;;;;;;24.40;87.80;;;;;;5097346;28;19908;-62
2022/07/17 01:24:41;;;;;;;;;;;24.40;87.80;;;;;;5097042;28;19908;-62
2022/07/17 01:27:06;;;;;;;;;;;24.40;87.80;;;;;;5097681;28;19909;-62
2022/07/17 01:29:32;;;;;;;;;;;24.40;87.90;;;;;;5097126;28;19919;-62
2022/07/17 01:31:57;;;;;;;;;;;24.40;87.90;;;;;;5097284;28;20311;-62
2022/07/17 01:34:23;;;;;;;;;;;24.40;87.90;;;;;;5097217;28;19908;-62
2022/07/17 01:36:48;;;;;;;;;;;24.40;88.00;;;;;;5097152;28;19908;-62
2022/07/17 01:39:14;;;;;;;;;;;24.40;88.00;;;;;;5097128;28;20012;-62
2022/07/17 01:41:39;;;;;;;;;;;24.40;88.00;;;;;;5095569;28;19912;-62
2022/07/17 01:44:06;;;;;;;;;;;24.40;88.00;;;;;;5097011;28;19908;-62
2022/07/17 01:46:31;;;;;;;;;;;24.40;88.00;;;;;;5096890;28;19944;-62
2022/07/17 01:48:57;;;;;;;;;;;24.40;88.10;;;;;;5096680;28;20451;-62
2022/07/17 01:51:22;;;;;;;;;;;24.40;88.10;;;;;;5096849;28;20424;-62
2022/07/17 01:53:48;;;;;;;;;;;24.40;88.10;;;;;;5096718;28;19908;-63
2022/07/17 01:56:13;;;;;;;;;;;24.40;88.10;;;;;;5096788;28;19951;-62
2022/07/17 01:58:39;;;;;;;;;;;24.40;88.20;;;;;;5096252;28;19942;-62
2022/07/17 02:01:04;;;;;;;;;;;24.40;88.10;;;;;;5096659;28;19908;-62
2022/07/17 02:03:30;;;;;;;;;;;24.40;88.20;;;;;;5096676;28;19918;-62
2022/07/17 02:05:55;;;;;;;;;;;24.40;88.20;;;;;;5096555;28;19961;-62
2022/07/17 02:08:21;;;;;;;;;;;24.40;88.30;;;;;;5096545;28;19915;-62
2022/07/17 02:10:46;;;;;;;;;;;24.40;88.30;;;;;;5096483;28;20240;-62
2022/07/17 02:13:12;;;;;;;;;;;24.40;88.30;;;;;;5096555;28;20345;-62
2022/07/17 02:15:37;;;;;;;;;;;24.40;88.20;;;;;;5096455;28;19915;-62
2022/07/17 02:18:03;;;;;;;;;;;24.40;88.30;;;;;;5096447;28;20385;-62
2022/07/17 02:20:28;;;;;;;;;;;24.40;88.20;;;;;;5096353;28;19908;-62
2022/07/17 02:22:54;;;;;;;;;;;24.40;88.20;;;;;;5096383;28;19949;-62
2022/07/17 02:25:19;;;;;;;;;;;24.40;88.30;;;;;;5096221;28;20007;-62
2022/07/17 02:27:45;;;;;;;;;;;24.40;88.30;;;;;;5095856;28;19908;-63
2022/07/17 02:30:12;;;;;;;;;;;24.40;88.30;;;;;;5095678;28;19916;-62
2022/07/17 02:32:37;;;;;;;;;;;24.30;88.30;;;;;;5095840;28;20003;-62
2022/07/17 02:35:04;;;;;;;;;;;24.40;88.40;;;;;;5096071;28;19966;-62
2022/07/17 02:37:29;;;;;;;;;;;24.40;88.40;;;;;;5096220;28;19912;-63
2022/07/17 02:39:55;;;;;;;;;;;24.40;88.40;;;;;;5095985;28;19908;-62
2022/07/17 02:42:24;;;;;;;;;;;24.40;88.40;;;;;;5095930;28;19908;-62
2022/07/17 02:44:50;;;;;;;;;;;24.40;88.40;;;;;;5095583;28;20015;-62
2022/07/17 02:47:23;;;;;;;;;;;24.40;88.50;;;;;;5096121;28;19951;-62
2022/07/17 02:49:49;;;;;;;;;;;24.40;88.40;;;;;;5095318;28;19943;-63
2022/07/17 02:52:14;;;;;;;;;;;24.40;88.50;;;;;;5095439;28;19912;-63
2022/07/17 02:54:40;;;;;;;;;;;24.40;88.50;;;;;;5095630;28;19912;-63
2022/07/17 02:57:05;;;;;;;;;;;24.40;88.50;;;;;;5095328;28;20358;-62
2022/07/17 02:59:31;;;;;;;;;;;24.40;88.50;;;;;;5095465;28;19920;-63
2022/07/17 03:01:56;;;;;;;;;;;24.40;88.50;;;;;;5095582;28;19908;-62
2022/07/17 03:04:21;;;;;;;;;;;24.40;88.50;;;;;;5095406;28;20052;-62
2022/07/17 03:06:47;;;;;;;;;;;24.40;88.50;;;;;;5095136;28;19914;-62
2022/07/17 03:09:12;;;;;;;;;;;24.40;88.60;;;;;;5095282;28;20248;-62
2022/07/17 03:11:38;;;;;;;;;;;24.40;88.50;;;;;;5095022;28;19912;-62
2022/07/17 03:14:03;;;;;;;;;;;24.40;88.50;;;;;;5095300;28;19908;-62
2022/07/17 03:16:29;;;;;;;;;;;24.40;88.60;;;;;;5094974;28;20002;-62
2022/07/17 03:18:54;;;;;;;;;;;24.40;88.60;;;;;;5094951;28;19908;-63
2022/07/17 03:21:20;;;;;;;;;;;24.40;88.60;;;;;;5095143;28;19965;-63
2022/07/17 03:23:45;;;;;;;;;;;24.40;88.60;;;;;;5095138;28;20006;-63
2022/07/17 03:26:11;;;;;;;;;;;24.40;88.70;;;;;;5095110;28;20358;-63
2022/07/17 03:28:36;;;;;;;;;;;24.40;88.80;;;;;;5094755;28;19961;-63
2022/07/17 03:31:02;;;;;;;;;;;24.40;88.80;;;;;;5094966;28;19985;-63
2022/07/17 03:33:27;;;;;;;;;;;24.30;88.70;;;;;;5094697;28;19978;-63
2022/07/17 03:35:53;;;;;;;;;;;24.30;89.30;;;;;;5094612;28;19908;-63
2022/07/17 03:38:18;;;;;;;;;;;24.30;88.80;;;;;;5095197;28;19996;-62
2022/07/17 03:40:43;;;;;;;;;;;24.30;88.80;;;;;;5094850;28;20355;-63
2022/07/17 03:43:09;;;;;;;;;;;24.30;88.80;;;;;;5094790;28;19912;-63
2022/07/17 03:45:35;;;;;;;;;;;24.30;88.80;;;;;;5094475;28;20014;-63
2022/07/17 03:48:00;;;;;;;;;;;24.30;88.90;;;;;;5094748;28;20421;-63
2022/07/17 03:50:25;;;;;;;;;;;24.30;88.80;;;;;;5094622;28;19916;-63
2022/07/17 03:52:51;;;;;;;;;;;24.30;88.90;;;;;;5094534;28;19947;-63
2022/07/17 03:55:16;;;;;;;;;;;24.30;88.90;;;;;;5076377;28;20346;-63
2022/07/17 03:57:42;;;;;;;;;;;24.30;88.90;;;;;;5094451;28;19954;-60
2022/07/17 04:00:08;;;;;;;;;;;24.30;88.80;;;;;;5094167;28;19920;-63
2022/07/17 04:02:33;;;;;;;;;;;24.40;88.80;;;;;;5094210;28;19916;-63
2022/07/17 04:04:59;;;;;;;;;;;24.40;88.90;;;;;;5093951;28;20290;-63
2022/07/17 04:07:27;;;;;;;;;;;24.40;88.80;;;;;;5094151;28;19969;-63
2022/07/17 04:09:53;;;;;;;;;;;24.40;88.80;;;;;;5075847;28;19912;-63
2022/07/17 04:12:19;;;;;;;;;;;24.40;88.80;;;;;;5094372;28;19912;-63
2022/07/17 04:14:44;;;;;;;;;;;24.40;88.80;;;;;;5076150;28;19915;-63
2022/07/17 04:17:10;;;;;;;;;;;24.40;88.80;;;;;;5094315;28;20326;-63
2022/07/17 04:19:35;;;;;;;;;;;24.40;88.70;;;;;;5094033;28;19908;-63
2022/07/17 04:22:01;;;;;;;;;;;24.40;88.80;;;;;;5094082;28;20412;-63
2022/07/17 04:24:26;;;;;;;;;;;24.40;88.70;;;;;;5094257;28;19915;-61
2022/07/17 04:26:51;;;;;;;;;;;24.40;88.70;;;;;;5093809;28;19908;-63
2022/07/17 04:29:17;;;;;;;;;;;24.40;88.60;;;;;;5094104;28;19912;-63
2022/07/17 04:31:42;;;;;;;;;;;24.50;88.70;;;;;;5093914;28;20393;-63
2022/07/17 04:34:08;;;;;;;;;;;24.50;88.60;;;;;;5094091;28;19909;-63
2022/07/17 04:36:34;;;;;;;;;;;24.40;88.60;;;;;;5094154;28;19912;-63
2022/07/17 04:38:59;;;;;;;;;;;24.50;88.60;;;;;;5093909;28;20003;-63
2022/07/17 04:41:25;;;;;;;;;;;24.50;88.60;;;;;;5094352;28;19915;-63
2022/07/17 04:43:50;;;;;;;;;;;24.50;88.60;;;;;;5093734;28;19919;-63
2022/07/17 04:46:16;;;;;;;;;;;24.50;88.60;;;;;;5094024;28;20037;-63
2022/07/17 04:48:41;;;;;;;;;;;24.50;88.60;;;;;;5093988;28;20259;-63
2022/07/17 04:51:07;;;;;;;;;;;24.50;88.50;;;;;;5093572;28;19912;-63
2022/07/17 04:53:33;;;;;;;;;;;24.50;88.60;;;;;;5093974;28;19977;-63
2022/07/17 04:55:59;;;;;;;;;;;24.50;88.60;;;;;;5094285;28;19969;-63
2022/07/17 04:58:24;;;;;;;;;;;24.50;88.50;;;;;;5093672;28;20308;-63
2022/07/17 05:00:50;;;;;;;;;;;24.60;88.60;;;;;;5093946;28;20317;-63
2022/07/17 05:03:15;;;;;;;;;;;24.60;88.50;;;;;;5093607;28;19908;-63
2022/07/17 05:05:41;;;;;;;;;;;24.50;88.50;;;;;;5094200;28;19915;-62
2022/07/17 05:08:06;;;;;;;;;;;24.60;88.50;;;;;;5094119;28;19908;-62
2022/07/17 05:10:32;;;;;;;;;;;24.60;88.40;;;;;;5093759;28;19939;-63
2022/07/17 05:12:57;;;;;;;;;;;24.60;88.40;;;;;;5094032;28;19918;-63
2022/07/17 05:15:23;;;;;;;;;;;24.60;88.30;;;;;;5093621;28;20041;-62
2022/07/17 05:17:48;;;;;;;;;;;24.60;88.20;;;;;;5097542;28;19915;-63
2022/07/17 05:20:14;;;;;;;;;;;24.60;88.40;;;;;;5097463;28;20360;-63
2022/07/17 05:22:39;;;;;;;;;;;24.60;88.40;;;;;;5097101;28;19919;-63
2022/07/17 05:25:05;;;;;;;;;;;24.60;88.40;;;;;;5097030;28;20290;-63
2022/07/17 05:27:31;;;;;;;;;;;24.60;88.50;;;;;;5097347;28;19999;-63
2022/07/17 05:29:56;;;;;;;;;;;24.60;88.40;;;;;;5097295;28;19916;-63
2022/07/17 05:32:22;;;;;;;;;;;24.60;88.50;;;;;;5094522;28;19924;-63
2022/07/17 05:34:47;;;;;;;;;;;24.60;88.50;;;;;;5092615;28;20010;-62
2022/07/17 05:37:13;;;;;;;;;;;24.60;88.50;;;;;;5117145;28;19907;-63
2022/07/17 05:39:39;;;;;;;;;;;24.60;88.50;;;;;;5103772;28;19915;-63
2022/07/17 05:42:05;;;;;;;;;;;24.60;88.50;;;;;;5096984;28;19908;-63
2022/07/17 05:44:30;;;;;;;;;;;24.60;88.50;;;;;;5097032;28;19912;-63
2022/07/17 05:46:56;;;;;;;;;;;24.60;88.50;;;;;;5096895;28;19955;-63
2022/07/17 05:49:21;;;;;;;;;;;24.60;88.50;;;;;;5078625;28;19916;-62
2022/07/17 05:51:47;;;;;;;;;;;24.60;88.60;;;;;;5109645;28;19912;-63
2022/07/17 05:54:12;;;;;;;;;;;24.60;88.60;;;;;;5117545;28;19970;-63
2022/07/17 05:56:38;;;;;;;;;;;24.60;88.60;;;;;;5070681;28;19913;-63
2022/07/17 05:59:03;;;;;;;;;;;24.60;88.60;;;;;;5116526;28;19923;-63
2022/07/17 06:01:29;;;;;;;;;;;24.60;88.70;;;;;;5108328;28;20279;-63
2022/07/17 06:03:54;;;;;;;;;;;24.60;88.70;;;;;;5084704;28;19912;-63
2022/07/17 06:06:21;;;;;;;;;;;24.60;88.50;;;;;;5097990;28;19923;-63
2022/07/17 06:08:46;;;;;;;;;;;24.60;88.50;;;;;;5096241;28;20424;-63
2022/07/17 06:11:12;;;;;;;;;;;24.60;88.40;;;;;;5099766;28;19939;-62
2022/07/17 06:13:38;;;;;;;;;;;24.60;88.40;;;;;;5086673;28;19910;-62
2022/07/17 06:16:03;;;;;;;;;;;24.60;88.60;;;;;;5095316;28;20365;-63
2022/07/17 06:18:29;;;;;;;;;;;24.60;88.70;;;;;;5094067;28;19904;-63
2022/07/17 06:20:54;;;;;;;;;;;24.50;88.70;;;;;;5092160;28;19908;-63
2022/07/17 06:23:20;;;;;;;;;;;24.50;88.70;;;;;;5063923;28;19916;-62
2022/07/17 06:25:46;;;;;;;;;;;24.60;88.60;;;;;;5116257;28;19908;-63
2022/07/17 06:28:11;;;;;;;;;;;24.60;88.50;;;;;;5089679;28;19944;-63
2022/07/17 06:30:37;;;;;;;;;;;24.50;88.40;;;;;;5095881;28;19912;-63
2022/07/17 06:33:02;;;;;;;;;;;24.50;88.80;;;;;;5095734;28;19912;-63
2022/07/17 06:35:30;;;;;;;;;;;24.60;88.70;;;;;;5070828;28;19912;-63
2022/07/17 06:37:56;;;;;;;;;;;24.60;88.90;;;;;;5104192;28;20355;-63
2022/07/17 06:40:22;;;;;;;;;;;24.60;89.00;;;;;;5115416;28;20327;-63
2022/07/17 06:42:47;;;;;;;;;;;24.60;88.90;;;;;;5098987;28;19919;-63
2022/07/17 06:45:13;;;;;;;;;;;24.50;89.00;;;;;;5084246;28;19930;-63
2022/07/17 06:47:39;;;;;;;;;;;24.60;89.00;;;;;;5094905;28;19908;-61
2022/07/17 06:50:05;;;;;;;;;;;24.50;84.00;;;;;;5091782;28;19916;-61
2022/07/17 06:52:30;;;;;;;;;;;24.30;80.30;;;;;;5095439;28;19950;-61
2022/07/17 06:54:56;;;;;;;;;;;24.20;79.70;;;;;;5092861;28;20415;-62
2022/07/17 06:57:21;;;;;;;;;;;24.10;79.40;;;;;;5080338;28;19912;-63
2022/07/17 06:59:46;;;;;;;;;;;24.20;81.30;;;;;;5115790;28;20002;-62
2022/07/17 07:02:12;;;;;;;;;;;24.30;83.40;;;;;;5108815;28;19908;-62
2022/07/17 07:04:37;;;;;;;;;;;24.30;84.70;;;;;;5095161;28;19908;-62
2022/07/17 07:07:03;;;;;;;;;;;24.40;85.10;;;;;;5105147;28;19919;-62
2022/07/17 07:09:28;;;;;;;;;;;24.40;85.50;;;;;;5094716;28;20011;-63
2022/07/17 07:11:54;;;;;;;;;;;24.40;85.70;;;;;;5094746;28;20389;-63
2022/07/17 07:14:19;;;;;;;;;;;24.40;86.00;;;;;;5094592;28;19912;-62
2022/07/17 07:16:46;;;;;;;;;;;24.40;86.40;;;;;;5067700;28;19913;-63
2022/07/17 07:19:11;;;;;;;;;;;24.40;86.50;;;;;;5115304;28;19908;-62
2022/07/17 07:21:37;;;;;;;;;;;24.50;86.50;;;;;;5088974;28;20359;-63
2022/07/17 07:24:03;;;;;;;;;;;24.50;86.40;;;;;;5094870;28;19908;-62
2022/07/17 07:26:29;;;;;;;;;;;24.50;86.70;;;;;;5092969;28;20030;-62
2022/07/17 07:28:55;;;;;;;;;;;24.50;86.90;;;;;;5092546;28;19909;-62
2022/07/17 07:31:20;;;;;;;;;;;24.50;86.70;;;;;;5093102;28;20278;-62
2022/07/17 07:33:46;;;;;;;;;;;24.50;86.70;;;;;;5092898;28;19908;-62
2022/07/17 07:36:12;;;;;;;;;;;24.50;86.70;;;;;;5093321;28;19909;-62
2022/07/17 07:38:37;;;;;;;;;;;24.50;86.70;;;;;;5092610;28;19943;-62
2022/07/17 07:41:03;;;;;;;;;;;24.50;86.90;;;;;;5093338;28;20243;-62
2022/07/17 07:43:29;;;;;;;;;;;24.40;86.90;;;;;;5094576;28;20323;-63
2022/07/17 07:45:54;;;;;;;;;;;24.50;87.30;;;;;;5094169;28;19908;-62
2022/07/17 07:48:20;;;;;;;;;;;24.50;87.10;;;;;;5094438;28;19950;-62
2022/07/17 07:50:45;;;;;;;;;;;24.40;87.20;;;;;;5094098;28;20374;-63
2022/07/17 07:53:11;;;;;;;;;;;24.50;87.40;;;;;;5094361;28;19916;-62
2022/07/17 07:55:36;;;;;;;;;;;24.50;87.30;;;;;;5093894;28;20362;-62
2022/07/17 07:58:06;;;;;;;;;;;24.50;87.30;;;;;;5094369;28;19908;-63
2022/07/17 08:00:31;;;;;;;;;;;24.50;87.30;;;;;;5094291;28;20389;-62
2022/07/17 08:02:57;;;;;;;;;;;24.50;87.20;;;;;;5094299;28;19951;-62
2022/07/17 08:05:22;;;;;;;;;;;24.50;87.20;;;;;;5094095;28;20321;-63
2022/07/17 08:07:48;;;;;;;;;;;24.50;87.20;;;;;;5093713;28;19908;-62
2022/07/17 08:10:13;;;;;;;;;;;24.50;87.30;;;;;;5093974;28;19912;-62
2022/07/17 08:12:39;;;;;;;;;;;24.50;87.30;;;;;;5076057;28;19948;-62
2022/07/17 08:15:05;;;;;;;;;;;24.40;87.20;;;;;;5094021;28;19912;-62
2022/07/17 08:17:30;;;;;;;;;;;24.50;87.40;;;;;;5094027;28;19912;-62
2022/07/17 08:19:56;;;;;;;;;;;24.50;87.60;;;;;;5075720;28;19940;-62
2022/07/17 08:22:21;;;;;;;;;;;24.50;87.50;;;;;;5093981;28;19910;-62
2022/07/17 08:24:47;;;;;;;;;;;24.40;87.30;;;;;;5093707;28;19951;-62
2022/07/17 08:27:12;;;;;;;;;;;24.50;87.50;;;;;;5093983;28;19909;-62
2022/07/17 08:29:38;;;;;;;;;;;24.40;87.40;;;;;;5093865;28;19935;-62
2022/07/17 08:32:03;;;;;;;;;;;24.40;87.30;;;;;;5094098;28;20275;-62
2022/07/17 08:34:29;;;;;;;;;;;24.40;87.30;;;;;;5093526;28;20003;-62
2022/07/17 08:36:54;;;;;;;;;;;24.50;87.60;;;;;;5075844;28;19915;-62
2022/07/17 08:39:20;;;;;;;;;;;24.50;87.60;;;;;;5075919;28;19955;-63
2022/07/17 08:41:46;;;;;;;;;;;24.50;87.60;;;;;;5094110;28;19961;-62
2022/07/17 08:44:11;;;;;;;;;;;24.50;87.50;;;;;;5093959;28;20007;-63
2022/07/17 08:46:38;;;;;;;;;;;24.50;87.50;;;;;;5075596;28;19909;-62
2022/07/17 08:49:04;;;;;;;;;;;24.50;87.50;;;;;;5094023;28;20325;-60
2022/07/17 08:51:30;;;;;;;;;;;24.40;87.30;;;;;;5095748;28;19973;-62
2022/07/17 08:53:56;;;;;;;;;;;24.50;87.40;;;;;;5097680;28;19916;-61
2022/07/17 08:56:21;;;;;;;;;;;24.50;87.40;;;;;;5097222;28;20015;-61
2022/07/17 08:58:47;;;;;;;;;;;24.50;87.90;;;;;;5097352;28;20358;-61
2022/07/17 09:01:13;;;;;;;;;;;24.50;87.60;;;;;;5097198;28;19908;-62
2022/07/17 09:03:39;;;;;;;;;;;24.50;87.60;;;;;;5097108;28;19953;-61
2022/07/17 09:06:04;;;;;;;;;;;24.50;87.60;;;;;;5097378;28;20014;-61
2022/07/17 09:08:33;;;;;;;;;;;24.50;87.40;;;;;;5097155;28;20395;-62
2022/07/17 09:10:59;;;;;;;;;;;24.50;87.50;;;;;;5097396;28;20011;-62
2022/07/17 09:13:29;;;;;;;;;;;24.50;87.50;;;;;;5071627;28;20388;-61
2022/07/17 09:15:58;;;;;;;;;;;24.50;87.40;;;;;;5094993;28;19912;-61
2022/07/17 09:18:24;;;;;;;;;;;24.50;87.40;;;;;;5097221;28;19914;-61
2022/07/17 09:20:51;;;;;;;;;;;24.50;87.50;;;;;;5096993;28;19987;-61
2022/07/17 09:23:17;;;;;;;;;;;24.60;87.60;;;;;;5092621;28;20349;-61
2022/07/17 09:25:44;;;;;;;;;;;24.50;87.50;;;;;;5087616;28;20334;-61
2022/07/17 09:28:11;;;;;;;;;;;24.60;87.70;;;;;;5067822;28;19938;-60
2022/07/17 09:30:37;;;;;;;;;;;24.60;87.70;;;;;;5085894;28;19912;-62
2022/07/17 09:33:05;;;;;;;;;;;24.60;87.70;;;;;;5085270;28;19934;-60
2022/07/17 09:35:31;;;;;;;;;;;24.50;85.70;;;;;;5094142;28;20382;-62
2022/07/17 09:37:56;;;;;;;;;;;24.50;84.80;;;;;;5089220;28;19984;-62
2022/07/17 09:43:07;;;;;;;;;;;24.50;85.90;;;;;;5107020;28;19918;-62
2022/07/17 09:45:33;;;;;;;;;;;24.60;86.00;;;;;;5107493;28;19958;-62
2022/07/17 09:48:00;;;;;;;;;;;24.60;86.20;;;;;;5117045;28;19915;-62
2022/07/17 09:50:26;;;;;;;;;;;24.50;86.50;;;;;;5114558;28;20255;-62
2022/07/17 09:52:52;;;;;;;;;;;24.50;86.80;;;;;;5112350;28;19916;-62
2022/07/17 09:55:19;;;;;;;;;;;24.50;86.90;;;;;;5112091;28;20396;-61
2022/07/17 09:57:47;;;;;;;;;;;24.50;86.90;;;;;;5112545;28;19919;-62
2022/07/17 10:00:12;;;;;;;;;;;24.50;86.90;;;;;;5109696;28;19939;-62
2022/07/17 10:02:40;;;;;;;;;;;24.50;87.00;;;;;;5110285;28;21428;-62
2022/07/17 10:05:08;;;;;;;;;;;24.50;87.10;;;;;;5113712;28;19911;-62
2022/07/17 10:07:33;;;;;;;;;;;24.50;87.20;;;;;;5089987;28;19930;-62
2022/07/17 10:09:59;;;;;;;;;;;24.50;87.30;;;;;;5113203;28;19939;-62
2022/07/17 10:12:25;;;;;;;;;;;24.50;87.20;;;;;;5114368;28;19947;-62
2022/07/17 10:14:50;;;;;;;;;;;24.50;87.10;;;;;;5116319;28;20254;-62
2022/07/17 10:17:20;;;;;;;;;;;24.50;87.10;;;;;;5113074;28;19920;-62
2022/07/17 10:20:06;;;;;;;;;;;24.50;87.00;;;;;;5107363;28;19934;-62
2022/07/17 10:22:42;;;;;;;;;;;24.50;87.10;;;;;;5075840;28;19916;-63
2022/07/17 10:25:11;;;;;;;;;;;24.50;87.10;;;;;;5103598;28;19912;-62
2022/07/17 10:27:44;;;;;;;;;;;24.60;87.20;;;;;;5116297;28;20300;-62
2022/07/17 10:30:10;;;;;;;;;;;24.50;87.20;;;;;;5111372;28;20023;-62
2022/07/17 10:32:37;;;;;;;;;;;24.50;87.10;;;;;;5116042;28;19951;-62
2022/07/17 10:35:04;;;;;;;;;;;24.50;87.10;;;;;;5095634;28;19915;-62
2022/07/17 10:37:29;;;;;;;;;;;24.50;87.20;;;;;;5113224;28;19915;-61
2022/07/17 10:39:56;;;;;;;;;;;24.50;87.10;;;;;;5111070;28;19912;-61
2022/07/17 10:42:40;;;;;;;;;;;24.50;87.10;;;;;;5115644;28;19907;-62
2022/07/17 10:45:06;;;;;;;;;;;24.50;87.10;;;;;;5115514;28;19935;-62
2022/07/17 10:47:41;;;;;;;;;;;24.50;87.10;;;;;;5112101;28;19912;-62
2022/07/17 10:50:07;;;;;;;;;;;24.50;87.20;;;;;;5109281;28;20283;-62
2022/07/17 10:52:33;;;;;;;;;;;24.50;87.10;;;;;;5113207;28;19927;-62
2022/07/17 10:54:58;;;;;;;;;;;24.50;87.30;;;;;;5108374;28;19912;-62
2022/07/17 10:57:24;;;;;;;;;;;24.50;87.20;;;;;;5104923;28;20049;-62
2022/07/17 10:59:50;;;;;;;;;;;24.50;87.20;;;;;;5115713;28;19939;-63
2022/07/17 11:02:16;;;;;;;;;;;24.50;87.30;;;;;;5098710;28;19912;-63
2022/07/17 11:04:41;;;;;;;;;;;24.50;87.10;;;;;;5074241;28;19908;-62
2022/07/17 11:07:07;;;;;;;;;;;24.50;87.20;;;;;;5094989;28;19954;-63
2022/07/17 11:09:32;;;;;;;;;;;24.50;87.10;;;;;;5079694;28;20388;-62
2022/07/17 11:11:57;;;;;;;;;;;24.50;87.20;;;;;;5092013;28;20032;-61
2022/07/17 11:14:24;;;;;;;;;;;24.50;87.20;;;;;;5105339;28;20362;-53
2022/07/17 11:17:00;;;;;;;;;;;24.50;85.20;;;;;;5103084;28;19912;-61
2022/07/17 11:19:32;;;;;;;;;;;24.50;85.40;;;;;;5076244;28;19908;-68
2022/07/17 11:21:58;;;;;;;;;;;24.50;83.90;;;;;;5078985;28;19916;-67
2022/07/17 11:24:26;;;;;;;;;;;24.40;84.40;;;;;;5073879;28;19912;-69
2022/07/17 11:26:51;;;;;;;;;;;24.50;84.60;;;;;;5074600;28;19920;-67
2022/07/17 11:29:17;;;;;;;;;;;24.50;85.10;;;;;;5074474;28;20028;-69
2022/07/17 11:31:43;;;;;;;;;;;24.50;85.30;;;;;;5074448;28;20393;-69
2022/07/17 11:34:11;;;;;;;;;;;24.50;85.60;;;;;;5074579;28;19916;-69
2022/07/17 11:36:41;;;;;;;;;;;24.50;85.80;;;;;;5073970;28;20003;-69
2022/07/17 11:39:10;;;;;;;;;;;24.50;85.90;;;;;;5073916;28;19915;-69
2022/07/17 11:41:46;;;;;;;;;;;24.50;85.90;;;;;;5074643;28;19955;-67
2022/07/17 11:44:13;;;;;;;;;;;24.50;85.90;;;;;;5073831;28;19987;-67
2022/07/17 11:46:45;;;;;;;;;;;24.50;85.90;;;;;;5074286;28;20315;-68
2022/07/17 11:49:10;;;;;;;;;;;24.50;86.00;;;;;;5055849;28;20440;-68
2022/07/17 11:51:45;;;;;;;;;;;24.50;86.00;;;;;;5074204;28;19934;-68
2022/07/17 11:54:12;;;;;;;;;;;24.50;86.10;;;;;;5074012;28;19916;-68
2022/07/17 11:56:38;;;;;;;;;;;24.50;86.20;;;;;;5074162;28;19909;-69
2022/07/17 11:59:03;;;;;;;;;;;24.50;86.30;;;;;;5073955;28;19943;-68
2022/07/17 12:01:36;;;;;;;;;;;24.50;86.40;;;;;;5073556;28;19913;-68
2022/07/17 12:04:02;;;;;;;;;;;24.50;86.50;;;;;;5073951;28;19995;-68
2022/07/17 12:06:27;;;;;;;;;;;24.50;86.30;;;;;;5074015;28;20363;-68
2022/07/17 12:08:53;;;;;;;;;;;24.50;86.20;;;;;;5074216;28;19958;-68
2022/07/17 12:11:19;;;;;;;;;;;24.50;86.30;;;;;;5073434;28;19962;-68
2022/07/17 12:13:50;;;;;;;;;;;24.50;86.30;;;;;;5073929;28;19913;-68
2022/07/17 12:16:23;;;;;;;;;;;24.50;86.50;;;;;;5073678;28;19908;-68
2022/07/17 12:18:56;;;;;;;;;;;24.50;86.40;;;;;;5055708;28;20495;-68
2022/07/17 12:21:21;;;;;;;;;;;24.50;86.40;;;;;;5073466;28;19916;-68
2022/07/17 12:23:56;;;;;;;;;;;24.50;86.30;;;;;;5055654;28;19909;-67
2022/07/17 12:26:21;;;;;;;;;;;24.50;86.40;;;;;;5073278;28;19959;-68
2022/07/17 12:28:47;;;;;;;;;;;24.50;86.50;;;;;;5073677;28;19913;-68
2022/07/17 12:31:13;;;;;;;;;;;24.50;86.60;;;;;;5055638;28;19913;-68
2022/07/17 12:33:39;;;;;;;;;;;24.50;86.50;;;;;;5055507;28;20260;-68
2022/07/17 12:36:05;;;;;;;;;;;24.50;86.40;;;;;;5055466;28;19916;-68
2022/07/17 12:38:30;;;;;;;;;;;24.50;86.30;;;;;;5073055;28;19913;-68
2022/07/17 12:40:56;;;;;;;;;;;24.50;86.40;;;;;;5073886;28;19916;-67
2022/07/17 12:43:23;;;;;;;;;;;24.50;86.40;;;;;;5073840;28;19962;-68
2022/07/17 12:45:49;;;;;;;;;;;24.50;86.30;;;;;;5073713;28;19915;-68
2022/07/17 12:48:14;;;;;;;;;;;24.50;86.40;;;;;;5073521;28;19908;-67
2022/07/17 12:50:39;;;;;;;;;;;24.50;86.40;;;;;;5072835;28;19927;-68
2022/07/17 12:53:06;;;;;;;;;;;24.50;86.60;;;;;;5073513;28;19913;-68
2022/07/17 12:55:32;;;;;;;;;;;24.50;86.60;;;;;;5073569;28;19984;-68
2022/07/17 12:57:57;;;;;;;;;;;24.50;86.60;;;;;;5055324;28;19908;-68
2022/07/17 13:00:23;;;;;;;;;;;24.60;86.80;;;;;;5055348;28;20394;-68
2022/07/17 13:02:48;;;;;;;;;;;24.50;86.50;;;;;;5073158;28;20011;-68
2022/07/17 13:05:13;;;;;;;;;;;24.50;86.60;;;;;;5073586;28;19908;-68
2022/07/17 13:07:39;;;;;;;;;;;24.50;86.60;;;;;;5073232;28;20412;-68
2022/07/17 13:10:05;;;;;;;;;;;24.60;86.70;;;;;;5055329;28;19959;-68
2022/07/17 13:12:30;;;;;;;;;;;24.50;86.70;;;;;;5073435;28;19916;-68
2022/07/17 13:14:56;;;;;;;;;;;24.50;86.60;;;;;;5073094;28;20007;-68
2022/07/17 13:17:22;;;;;;;;;;;24.50;86.70;;;;;;5072959;28;19913;-68
2022/07/17 13:19:48;;;;;;;;;;;24.50;86.70;;;;;;5073026;28;19916;-67
2022/07/17 13:22:14;;;;;;;;;;;24.50;86.70;;;;;;5073081;28;19908;-68
2022/07/17 13:24:39;;;;;;;;;;;24.50;86.90;;;;;;5073601;28;19909;-68
2022/07/17 13:27:05;;;;;;;;;;;24.50;86.90;;;;;;5073272;28;20005;-68
2022/07/17 13:29:30;;;;;;;;;;;24.50;87.00;;;;;;5055159;28;20393;-68
2022/07/17 13:31:56;;;;;;;;;;;24.50;87.10;;;;;;5073391;28;20034;-68
2022/07/17 13:34:22;;;;;;;;;;;24.50;86.80;;;;;;5055380;28;19909;-68
2022/07/17 13:36:48;;;;;;;;;;;24.50;86.80;;;;;;5073317;28;19917;-68
2022/07/17 13:39:14;;;;;;;;;;;24.50;86.80;;;;;;5075952;28;20325;-69
2022/07/17 13:41:40;;;;;;;;;;;24.50;86.90;;;;;;5076270;28;19923;-68
2022/07/17 13:44:05;;;;;;;;;;;24.50;86.90;;;;;;5076414;28;19908;-69
2022/07/17 13:46:31;;;;;;;;;;;24.50;86.90;;;;;;5076540;28;20286;-69
2022/07/17 13:48:57;;;;;;;;;;;24.50;86.90;;;;;;5076355;28;19952;-68
2022/07/17 13:51:22;;;;;;;;;;;24.60;87.00;;;;;;5076356;28;19913;-69
2022/07/17 13:53:48;;;;;;;;;;;24.50;86.90;;;;;;5058504;28;19913;-68
2022/07/17 13:56:13;;;;;;;;;;;24.50;86.90;;;;;;5076011;28;19920;-68
2022/07/17 13:58:39;;;;;;;;;;;24.50;87.00;;;;;;5058032;28;19969;-68
2022/07/17 14:01:05;;;;;;;;;;;24.50;87.50;;;;;;5076018;28;19962;-68
2022/07/17 14:03:31;;;;;;;;;;;24.50;87.00;;;;;;5076175;28;19924;-68
2022/07/17 14:05:56;;;;;;;;;;;24.50;86.90;;;;;;5076017;28;20013;-68
2022/07/17 14:08:22;;;;;;;;;;;24.50;86.90;;;;;;5076162;28;20461;-68
2022/07/17 14:10:47;;;;;;;;;;;24.50;87.00;;;;;;5075661;28;20314;-68
2022/07/17 14:13:13;;;;;;;;;;;24.50;87.20;;;;;;5076229;28;20011;-69